ASN logo
 
Status:Definitief
Datum:zaterdag 3 januari 2015
Tijd:11:19
Type:Silhouette image of generic AN26 model; specific model in this crash may look slightly different
Antonov An-26B-100
Luchtvaartmaatschappij:KAPO Avia
Registratie: RA-26082
Constructienummer: 11705
Bouwjaar: 1981
Aantal vlieguren:13698
Aantal vluchten:6810
Motoren: 2 Ivchenko AI-24VT
Bemanning:slachtoffers: 0 / inzittenden: 4
Passagiers:slachtoffers: 0 / inzittenden: 6
Totaal:slachtoffers: 0 / inzittenden: 10
Schade: Groot
Gevolgen: Written off (damaged beyond repair)
Plaats:Magadan-Sokol Airport (GDX) (   Rusland)
Fase: Start (TOF)
Soort vlucht:Ferry
Vliegveld van vertrek:Magadan-Sokol Airport (GDX/UHMM), Rusland
Vliegveld van aankomst:Mirny Airport (MJZ/UERR), Rusland
Beschrijving:
An Antonov 26B transport plane sustained substantial damage in a takeoff accident at Magadan-Sokol Airport (GDX), Russia.
The aircraft operated on a flight from Yelizovo to Nizhnevartovsk, Russia with en route stops at Magadan, Mirnyy, and Krasnoyarsk.
During takeoff from Magadan the crew were not able to raise the nose during takeoff. The takeoff was aborted after the airplane had reached a speed of 250 km/h. The airplane failed to stop on the runway and skidded onto snow covered terrain. The right hand main gear collapsed, causing the right hand wing to contact the ground. The wing tip bent and the no. 2 engine propeller blades struck the ground.
It appeared the crew failed to complete a controls check prior to departure. Thus they did not notice the locked elevator.

Accident investigation:
cover
Investigating agency: MAK
Status: Investigation completed
Duration: 136 days (5 months)
Accident number: Final report
Download report: Final report
Language: Russian

Bronnen:
» Russian Emergency Situations Ministry, Magadan region
» MAK Interstate Aviation Committee (IAC)

METAR Weather report:
01:00 UTC / 11:00 local time:
UHMM 030100Z 33006MPS 9999 FEW040 OVC100 M09/M17 Q0988 NOSIG RMK QFE726 88420250 FBL TURB 0-1000

01:30 UTC / 11:30 local time:
UHMM 030130Z 32004MPS 9999 FEW040 OVC100 M09/M18 Q0988 NOSIG RMK QFE726 88420250

02:00 UTC / 12:00 local time:
UHMM 030200Z 30004MPS 260V340 9999 OVC100 M10/M18 Q0988 NOSIG RMK QFE726 88420250


Veiligheidsmaatregelen
On February 16, 2015, the Russian Federal Air Transport Agency revoked the AOC of the airline due to unacceptable gross violations of standard operating procedures that have led this serious accident.

Foto's

photo of Antonov-An-26B-100-RA-26082
accident date: 03-01-2015
type: Antonov An-26B-100
registration: RA-26082
 

Kaart
Deze kaart geeft het vliegveld van vetrek weer en de geplande bestemming van de vlucht. De lijn tussen de vliegvelden geeft niet de exacte vliegroute weer.
De afstand tussen Magadan-Sokol Airport en Mirny Airport bedraagt 1943 km (1214 miles).
Accident location: Exact; as reported in the official accident report.

This information is not presented as the Flight Safety Foundation or the Aviation Safety Network’s opinion as to the cause of the accident. It is preliminary and is based on the facts as they are known at this time.
languages: languages

Share

GAPPRE
GAPPRE
Global Action Plan for the Prevention of Runway Excursions (GAPPRE): recommendations and guidance material to prevent runway excursions
Antonov An-26

  • 1403 built
  • 148e ongeval
» safety profile

The Aviation Safety Network is an exclusive service provided by:
Quick Links:

CONNECT WITH US: FSF Facebook FSF Twitter FSF Youtube FSF LinkedIn FSF Instagram

©2022 Flight Safety Foundation

701 N. Fairfax St., Ste. 250
Alexandria, Virginia 22314
www.FlightSafety.org